createdAt,value
2022-09-17T00:01:07.422Z,100.00
2022-09-17T00:03:35.391Z,100.00
2022-09-17T00:06:09.809Z,100.00
2022-09-17T00:08:38.859Z,100.00
2022-09-17T00:11:18.129Z,100.00
2022-09-17T00:13:45.107Z,100.00
2022-09-17T00:16:12.796Z,100.00
2022-09-17T00:18:41.947Z,100.00
2022-09-17T00:21:19.737Z,100.00
2022-09-17T00:23:46.832Z,100.00
2022-09-17T00:26:13.953Z,100.00
2022-09-17T00:28:41.901Z,100.00
2022-09-17T00:31:09.789Z,100.00
2022-09-17T00:33:37.323Z,100.00
2022-09-17T00:36:05.798Z,100.00
2022-09-17T00:38:34.543Z,100.00
2022-09-17T00:41:02.540Z,100.00
2022-09-17T00:43:39.432Z,100.00
2022-09-17T00:46:32.212Z,100.00
2022-09-17T00:49:03.589Z,100.00
2022-09-17T00:51:42.917Z,100.00
2022-09-17T00:54:12.685Z,100.00
2022-09-17T00:56:41.849Z,100.00
2022-09-17T00:59:08.801Z,100.00
2022-09-17T01:01:36.487Z,100.00
2022-09-17T01:04:03.724Z,100.00
2022-09-17T01:06:53.964Z,100.00
2022-09-17T01:09:36.860Z,100.00
2022-09-17T01:12:22.258Z,100.00
2022-09-17T01:15:26.697Z,100.00
2022-09-17T01:18:35.430Z,100.00
2022-09-17T01:21:16.950Z,99.44
2022-09-17T01:23:53.594Z,99.08
2022-09-17T01:26:45.212Z,98.43
2022-09-17T01:29:26.872Z,97.96
2022-09-17T01:32:03.789Z,98.36
2022-09-17T01:35:19.937Z,97.63
2022-09-17T01:37:52.428Z,98.20
2022-09-17T01:40:29.862Z,98.21
2022-09-17T01:43:21.923Z,97.68
2022-09-17T01:45:52.196Z,97.88
2022-09-17T01:48:21.198Z,97.63
2022-09-17T01:51:13.096Z,98.48
2022-09-17T01:53:58.005Z,98.04
2022-09-17T01:56:30.177Z,98.21
2022-09-17T01:59:21.006Z,97.38
2022-09-17T02:01:53.365Z,97.80
2022-09-17T02:04:26.508Z,96.98
2022-09-17T02:07:02.568Z,97.11
2022-09-17T02:09:38.740Z,97.89
2022-09-17T02:12:10.739Z,97.79
2022-09-17T02:14:43.881Z,97.85
2022-09-17T02:17:22.424Z,97.36
2022-09-17T02:19:49.345Z,97.97
2022-09-17T02:22:31.219Z,97.65
2022-09-17T02:25:15.621Z,98.19
2022-09-17T02:28:10.761Z,98.58
2022-09-17T02:30:38.082Z,98.49
2022-09-17T02:33:09.773Z,98.67
2022-09-17T02:35:37.990Z,98.78
2022-09-17T02:38:05.410Z,99.16
2022-09-17T02:40:37.840Z,99.21
2022-09-17T02:43:19.127Z,99.67
2022-09-17T02:45:51.937Z,100.00
2022-09-17T02:48:32.671Z,100.00
2022-09-17T02:51:17.976Z,100.00
2022-09-17T02:54:10.215Z,100.00
2022-09-17T02:56:48.813Z,100.00
2022-09-17T02:59:21.868Z,100.00
2022-09-17T03:02:24.217Z,100.00
2022-09-17T03:04:52.638Z,100.00
2022-09-17T03:07:20.357Z,100.00
2022-09-17T03:09:47.280Z,100.00
2022-09-17T03:12:14.334Z,100.00
2022-09-17T03:14:41.049Z,100.00
2022-09-17T03:17:08.171Z,100.00
2022-09-17T03:19:34.830Z,100.00
2022-09-17T03:22:01.535Z,99.99
2022-09-17T03:24:28.267Z,100.00
2022-09-17T03:26:55.283Z,99.61
2022-09-17T03:29:21.917Z,99.49
2022-09-17T03:31:48.703Z,99.39
2022-09-17T03:34:15.488Z,98.69
2022-09-17T03:36:42.247Z,99.35
2022-09-17T03:39:08.952Z,98.66
2022-09-17T03:41:35.627Z,98.94
2022-09-17T03:44:02.759Z,98.77
2022-09-17T03:46:29.584Z,99.03
2022-09-17T03:48:56.385Z,98.81
2022-09-17T03:51:23.139Z,99.23
2022-09-17T03:53:49.891Z,99.60
2022-09-17T03:56:17.912Z,99.32
2022-09-17T03:58:44.771Z,99.53
2022-09-17T04:01:11.557Z,98.77
2022-09-17T04:03:38.429Z,98.86
2022-09-17T04:06:05.215Z,99.99
2022-09-17T04:08:32.746Z,99.80
2022-09-17T04:10:59.548Z,100.00
2022-09-17T04:13:26.300Z,100.00
2022-09-17T04:15:53.162Z,100.00
2022-09-17T04:18:19.912Z,100.00
2022-09-17T04:20:46.675Z,100.00
2022-09-17T04:23:13.624Z,100.00
2022-09-17T04:25:40.426Z,100.00
2022-09-17T04:28:07.373Z,100.00
2022-09-17T04:30:34.503Z,100.00
2022-09-17T04:33:01.250Z,99.90
2022-09-17T04:35:28.224Z,99.80
2022-09-17T04:37:56.630Z,99.71
2022-09-17T04:40:25.426Z,99.17
2022-09-17T04:42:56.656Z,99.19
2022-09-17T04:45:23.572Z,99.23
2022-09-17T04:47:53.118Z,100.00
2022-09-17T04:50:20.236Z,100.00
2022-09-17T04:52:48.001Z,99.35
2022-09-17T04:55:15.907Z,99.53
2022-09-17T04:57:47.705Z,98.92
2022-09-17T05:00:15.472Z,99.58
2022-09-17T05:02:45.309Z,99.50
2022-09-17T05:05:12.001Z,99.34
2022-09-17T05:07:39.670Z,98.79
2022-09-17T05:10:07.912Z,99.51
2022-09-17T05:12:34.759Z,98.97
2022-09-17T05:15:01.903Z,99.23
2022-09-17T05:17:28.697Z,99.48
2022-09-17T05:19:55.380Z,99.54
2022-09-17T05:22:22.157Z,99.11
2022-09-17T05:24:48.918Z,99.40
2022-09-17T05:27:15.601Z,99.81
2022-09-17T05:29:42.405Z,99.92
2022-09-17T05:32:09.085Z,100.00
2022-09-17T05:34:35.779Z,99.81
2022-09-17T05:37:02.518Z,99.05
2022-09-17T05:39:29.166Z,99.31
2022-09-17T05:41:55.902Z,99.75
2022-09-17T05:44:23.762Z,99.47
2022-09-17T05:46:53.777Z,100.00
2022-09-17T05:49:20.613Z,100.00
2022-09-17T05:51:47.242Z,100.00
2022-09-17T05:54:13.935Z,100.00
2022-09-17T05:56:40.595Z,100.00
2022-09-17T05:59:07.280Z,100.00
2022-09-17T06:01:34.033Z,100.00
2022-09-17T06:04:03.224Z,100.00
2022-09-17T06:06:31.196Z,100.00
2022-09-17T06:09:01.308Z,100.00
2022-09-17T06:11:28.570Z,100.00
2022-09-17T06:13:56.190Z,100.00
2022-09-17T06:16:24.161Z,99.81
2022-09-17T06:18:53.125Z,100.00
2022-09-17T06:21:21.901Z,100.00
2022-09-17T06:23:49.867Z,100.00
2022-09-17T06:26:17.379Z,100.00
2022-09-17T06:28:44.807Z,99.94
2022-09-17T06:31:13.133Z,99.87
2022-09-17T06:33:39.969Z,99.49
2022-09-17T06:36:14.105Z,99.44
2022-09-17T06:38:41.525Z,99.09
2022-09-17T06:41:08.444Z,98.89
2022-09-17T06:43:35.186Z,97.79
2022-09-17T06:46:06.107Z,97.71
2022-09-17T06:48:35.018Z,98.05
2022-09-17T06:51:04.201Z,97.72
2022-09-17T06:53:31.763Z,98.17
2022-09-17T06:56:05.182Z,98.42
2022-09-17T06:58:33.898Z,98.53
2022-09-17T07:01:01.845Z,98.13
2022-09-17T07:03:30.247Z,98.58
2022-09-17T07:05:57.827Z,98.15
2022-09-17T07:08:26.129Z,97.61
2022-09-17T07:10:57.329Z,97.76
2022-09-17T07:13:25.135Z,98.09
2022-09-17T07:15:56.307Z,97.98
2022-09-17T07:18:23.709Z,97.66
2022-09-17T07:21:00.612Z,98.24
2022-09-17T07:23:29.449Z,98.15
2022-09-17T07:25:58.441Z,98.13
2022-09-17T07:28:26.156Z,97.87
2022-09-17T07:30:53.653Z,98.12
2022-09-17T07:33:24.482Z,96.44
2022-09-17T07:35:58.190Z,97.33
2022-09-17T07:38:26.391Z,97.26
2022-09-17T07:41:05.413Z,97.63
2022-09-17T07:43:34.411Z,98.06
2022-09-17T07:46:03.257Z,98.48
2022-09-17T07:48:30.853Z,99.10
2022-09-17T07:50:58.113Z,100.00
2022-09-17T07:53:24.972Z,100.00
2022-09-17T07:55:53.750Z,100.00
2022-09-17T07:58:24.744Z,100.00
2022-09-17T08:00:51.715Z,100.00
2022-09-17T08:03:19.257Z,100.00
2022-09-17T08:05:46.198Z,100.00
2022-09-17T08:08:13.651Z,100.00
2022-09-17T08:10:40.872Z,100.00
2022-09-17T08:13:07.567Z,100.00
2022-09-17T08:15:34.257Z,100.00
2022-09-17T08:18:00.916Z,100.00
2022-09-17T08:20:27.576Z,100.00
2022-09-17T08:23:03.217Z,100.00
2022-09-17T08:25:29.862Z,100.00
2022-09-17T08:27:56.731Z,100.00
2022-09-17T08:30:23.964Z,100.00
2022-09-17T08:32:50.653Z,100.00
2022-09-17T08:35:17.917Z,100.00
2022-09-17T08:37:44.684Z,100.00
2022-09-17T08:40:22.433Z,100.00
2022-09-17T08:43:00.348Z,100.00
2022-09-17T08:45:27.596Z,100.00
2022-09-17T08:48:05.148Z,100.00
2022-09-17T08:50:34.305Z,100.00
2022-09-17T08:53:43.033Z,100.00
2022-09-17T08:56:16.471Z,100.00
2022-09-17T08:59:29.744Z,100.00
2022-09-17T09:02:16.005Z,100.00
2022-09-17T09:04:54.093Z,100.00
2022-09-17T09:07:27.168Z,100.00
2022-09-17T09:10:17.834Z,100.00
2022-09-17T09:12:45.888Z,100.00
2022-09-17T09:15:21.634Z,100.00
2022-09-17T09:17:49.485Z,100.00
2022-09-17T09:20:20.615Z,100.00
2022-09-17T09:22:48.273Z,100.00
2022-09-17T09:25:23.968Z,100.00
2022-09-17T09:28:01.775Z,100.00
2022-09-17T09:30:38.543Z,100.00
2022-09-17T09:33:14.677Z,100.00
2022-09-17T09:35:44.371Z,100.00
2022-09-17T09:38:35.103Z,100.00
2022-09-17T09:41:07.887Z,100.00
2022-09-17T09:44:04.183Z,100.00
2022-09-17T09:46:47.348Z,100.00
2022-09-17T09:49:26.291Z,100.00
2022-09-17T09:51:59.009Z,100.00
2022-09-17T09:55:03.429Z,100.00
2022-09-17T09:57:44.699Z,100.00
2022-09-17T10:00:29.015Z,100.00
2022-09-17T10:03:01.720Z,100.00
2022-09-17T10:05:28.679Z,100.00
2022-09-17T10:07:55.564Z,100.00
2022-09-17T10:10:22.225Z,100.00
2022-09-17T10:12:48.989Z,100.00
2022-09-17T10:15:33.893Z,100.00
2022-09-17T10:18:16.602Z,100.00
2022-09-17T10:20:56.826Z,100.00
2022-09-17T10:23:26.774Z,100.00
2022-09-17T10:25:55.806Z,100.00
2022-09-17T10:28:31.175Z,100.00
2022-09-17T10:31:03.095Z,100.00
2022-09-17T10:33:33.106Z,100.00
2022-09-17T10:35:59.757Z,98.11
2022-09-17T10:38:35.648Z,94.35
2022-09-17T10:41:21.963Z,94.76
2022-09-17T10:43:49.843Z,94.83
2022-09-17T10:46:27.872Z,96.78
2022-09-17T10:49:06.054Z,96.10
2022-09-17T10:51:32.756Z,96.28
2022-09-17T10:54:15.308Z,97.88
2022-09-17T10:56:49.741Z,96.61
2022-09-17T10:59:25.355Z,97.27
2022-09-17T11:02:04.310Z,98.83
2022-09-17T11:04:40.478Z,97.45
2022-09-17T11:07:13.396Z,96.94
2022-09-17T11:09:53.536Z,93.33
2022-09-17T11:12:36.694Z,93.76
2022-09-17T11:15:42.764Z,92.75
2022-09-17T11:18:09.419Z,94.24
2022-09-17T11:21:08.623Z,93.38
2022-09-17T11:23:47.538Z,93.88
2022-09-17T11:26:51.952Z,93.53
2022-09-17T11:29:41.913Z,90.57
2022-09-17T11:32:43.752Z,88.33
2022-09-17T11:35:19.147Z,84.40
2022-09-17T11:38:12.209Z,84.55
2022-09-17T11:40:46.478Z,80.99
2022-09-17T11:43:28.583Z,78.92
2022-09-17T11:46:27.705Z,79.56
2022-09-17T11:49:14.226Z,82.57
2022-09-17T11:51:49.044Z,82.81
2022-09-17T11:54:24.230Z,82.12
2022-09-17T11:57:07.645Z,79.76
2022-09-17T11:59:58.353Z,76.92
2022-09-17T12:02:56.353Z,75.04
2022-09-17T12:05:42.619Z,76.99
2022-09-17T12:08:21.661Z,80.37
2022-09-17T12:10:56.965Z,83.21
2022-09-17T12:13:30.262Z,84.49
2022-09-17T12:16:11.769Z,80.80
2022-09-17T12:18:51.709Z,81.72
2022-09-17T12:21:30.532Z,84.49
2022-09-17T12:24:11.905Z,85.67
2022-09-17T12:26:44.746Z,85.17
2022-09-17T12:29:36.410Z,86.77
2022-09-17T12:32:34.359Z,86.64
2022-09-17T12:35:13.664Z,90.71
2022-09-17T12:37:48.256Z,91.76
2022-09-17T12:40:18.087Z,92.09
2022-09-17T12:43:06.103Z,95.14
2022-09-17T12:45:49.950Z,95.66
2022-09-17T12:48:37.971Z,97.05
2022-09-17T12:51:36.806Z,97.35
2022-09-17T12:54:33.267Z,97.96
2022-09-17T12:57:16.858Z,98.02
2022-09-17T13:00:06.792Z,99.70
2022-09-17T13:03:06.782Z,98.59
2022-09-17T13:05:56.780Z,98.31
2022-09-17T13:08:53.755Z,97.23
2022-09-17T13:11:59.143Z,93.66
2022-09-17T13:14:35.961Z,92.35
2022-09-17T13:17:34.418Z,92.30
2022-09-17T13:20:32.095Z,92.80
2022-09-17T13:22:59.448Z,93.23
2022-09-17T13:25:27.334Z,92.55
2022-09-17T13:28:11.342Z,94.59
2022-09-17T13:31:01.733Z,93.52
2022-09-17T13:33:53.297Z,94.82
2022-09-17T13:37:08.815Z,94.49
2022-09-17T13:39:46.144Z,95.42
2022-09-17T13:42:18.976Z,94.81
2022-09-17T13:45:09.986Z,95.16
2022-09-17T13:47:50.710Z,91.71
2022-09-17T13:50:34.378Z,92.89
2022-09-17T13:53:16.297Z,93.58
2022-09-17T13:55:54.976Z,93.89
2022-09-17T13:58:21.562Z,95.36
2022-09-17T14:00:54.514Z,95.81
2022-09-17T14:03:44.557Z,97.34
2022-09-17T14:06:11.463Z,96.44
2022-09-17T14:08:44.044Z,97.53
2022-09-17T14:11:22.964Z,98.85
2022-09-17T14:13:51.451Z,97.95
2022-09-17T14:16:46.111Z,98.23
2022-09-17T14:19:15.798Z,96.24
2022-09-17T14:21:57.584Z,92.71
2022-09-17T14:24:28.619Z,94.75
2022-09-17T14:26:55.203Z,95.08
2022-09-17T14:29:59.313Z,96.05
2022-09-17T14:32:36.137Z,97.42
2022-09-17T14:35:16.601Z,99.24
2022-09-17T14:37:53.959Z,97.06
2022-09-17T14:40:21.880Z,97.16
2022-09-17T14:42:55.170Z,96.68
2022-09-17T14:45:29.693Z,96.50
2022-09-17T14:48:22.345Z,96.19
2022-09-17T14:50:49.078Z,93.27
2022-09-17T14:53:18.238Z,91.33
2022-09-17T14:55:47.834Z,90.82
2022-09-17T14:58:48.086Z,89.65
2022-09-17T15:01:29.401Z,87.24
2022-09-17T15:04:14.415Z,90.08
2022-09-17T15:06:42.601Z,89.66
2022-09-17T15:09:35.616Z,88.77
2022-09-17T15:12:03.872Z,87.78
2022-09-17T15:14:34.034Z,87.97
2022-09-17T15:17:02.625Z,87.52
2022-09-17T15:19:41.725Z,88.78
2022-09-17T15:22:13.692Z,89.97
2022-09-17T15:24:54.311Z,89.10
2022-09-17T15:27:23.870Z,88.88
2022-09-17T15:29:56.896Z,88.59
2022-09-17T15:32:23.812Z,88.95
2022-09-17T15:35:10.837Z,89.05
2022-09-17T15:38:11.918Z,89.60
2022-09-17T15:40:41.806Z,90.49
2022-09-17T15:43:21.862Z,91.79
2022-09-17T15:45:48.530Z,92.34
2022-09-17T15:48:23.838Z,92.55
2022-09-17T15:50:56.213Z,92.68
2022-09-17T15:53:25.190Z,93.13
2022-09-17T15:56:13.237Z,94.07
2022-09-17T15:58:42.960Z,94.11
2022-09-17T16:01:15.836Z,94.41
2022-09-17T16:03:43.734Z,95.65
2022-09-17T16:06:22.381Z,94.41
2022-09-17T16:08:54.257Z,94.41
2022-09-17T16:11:23.895Z,94.27
2022-09-17T16:13:52.127Z,94.41
2022-09-17T16:16:21.811Z,94.52
2022-09-17T16:18:51.916Z,94.75
2022-09-17T16:21:19.907Z,94.62
2022-09-17T16:23:46.904Z,93.98
2022-09-17T16:26:28.357Z,93.40
2022-09-17T16:29:00.347Z,94.25
2022-09-17T16:31:27.065Z,94.32
2022-09-17T16:33:55.102Z,95.25
2022-09-17T16:36:21.869Z,94.61
2022-09-17T16:38:48.712Z,95.03
2022-09-17T16:41:15.505Z,95.05
2022-09-17T16:43:42.170Z,96.31
2022-09-17T16:46:11.468Z,97.22
2022-09-17T16:48:38.642Z,99.43
2022-09-17T16:51:09.597Z,100.00
2022-09-17T16:53:36.516Z,100.00
2022-09-17T16:56:10.428Z,100.00
2022-09-17T16:58:37.487Z,100.00
2022-09-17T17:01:11.717Z,100.00
2022-09-17T17:03:38.690Z,100.00
2022-09-17T17:06:05.882Z,100.00
2022-09-17T17:08:33.556Z,100.00
2022-09-17T17:11:01.059Z,100.00
2022-09-17T17:13:27.959Z,100.00
2022-09-17T17:15:55.080Z,100.00
2022-09-17T17:18:22.313Z,100.00
2022-09-17T17:20:49.053Z,100.00
2022-09-17T17:23:16.353Z,100.00
2022-09-17T17:25:43.164Z,100.00
2022-09-17T17:28:10.238Z,100.00
2022-09-17T17:30:38.502Z,100.00
2022-09-17T17:33:05.504Z,100.00
2022-09-17T17:35:32.386Z,100.00
2022-09-17T17:37:59.423Z,100.00
2022-09-17T17:40:26.771Z,100.00
2022-09-17T17:42:54.450Z,100.00
2022-09-17T17:45:21.638Z,100.00
2022-09-17T17:47:48.443Z,100.00
2022-09-17T17:50:16.050Z,100.00
2022-09-17T17:52:48.012Z,100.00
2022-09-17T17:55:16.079Z,100.00
2022-09-17T17:57:42.892Z,100.00
2022-09-17T18:00:11.929Z,100.00
2022-09-17T18:02:39.136Z,100.00
2022-09-17T18:05:06.255Z,100.00
2022-09-17T18:07:33.660Z,100.00
2022-09-17T18:10:00.438Z,100.00
2022-09-17T18:12:27.311Z,100.00
2022-09-17T18:14:53.985Z,100.00
2022-09-17T18:17:20.636Z,100.00
2022-09-17T18:19:47.252Z,100.00
2022-09-17T18:22:14.317Z,100.00
2022-09-17T18:24:40.985Z,100.00
2022-09-17T18:27:07.671Z,100.00
2022-09-17T18:29:34.450Z,100.00
2022-09-17T18:32:01.204Z,100.00
2022-09-17T18:34:27.841Z,100.00
2022-09-17T18:36:54.491Z,100.00
2022-09-17T18:42:09.117Z,100.00
2022-09-17T18:44:35.918Z,100.00
2022-09-17T18:47:02.813Z,100.00
2022-09-17T18:49:29.433Z,100.00
2022-09-17T18:51:56.233Z,100.00
2022-09-17T18:54:22.895Z,100.00
2022-09-17T18:56:49.499Z,100.00
2022-09-17T18:59:16.121Z,100.00
2022-09-17T19:01:42.935Z,100.00
2022-09-17T19:04:11.290Z,100.00
2022-09-17T19:06:38.109Z,100.00
2022-09-17T19:09:05.864Z,100.00
2022-09-17T19:11:34.691Z,100.00
2022-09-17T19:14:01.553Z,100.00
2022-09-17T19:16:28.334Z,100.00
2022-09-17T19:18:55.107Z,100.00
2022-09-17T19:21:21.964Z,100.00
2022-09-17T19:23:51.175Z,100.00
2022-09-17T19:26:23.417Z,100.00
2022-09-17T19:28:55.070Z,100.00
2022-09-17T19:31:22.282Z,100.00
2022-09-17T19:33:49.185Z,100.00
2022-09-17T19:36:17.626Z,100.00
2022-09-17T19:38:45.373Z,100.00
2022-09-17T19:41:16.587Z,100.00
2022-09-17T19:43:43.562Z,100.00
2022-09-17T19:46:16.105Z,100.00
2022-09-17T19:48:53.730Z,100.00
2022-09-17T19:51:21.958Z,100.00
2022-09-17T19:53:48.773Z,100.00
2022-09-17T19:56:18.410Z,100.00
2022-09-17T19:58:45.517Z,100.00
2022-09-17T20:01:13.041Z,100.00
2022-09-17T20:03:41.105Z,100.00
2022-09-17T20:06:10.309Z,100.00
2022-09-17T20:08:42.524Z,100.00
2022-09-17T20:11:12.697Z,100.00
2022-09-17T20:13:39.542Z,100.00
2022-09-17T20:16:09.850Z,100.00
2022-09-17T20:18:37.455Z,100.00
2022-09-17T20:21:13.116Z,100.00
2022-09-17T20:23:39.853Z,100.00
2022-09-17T20:26:06.971Z,100.00
2022-09-17T20:28:34.575Z,100.00
2022-09-17T20:31:10.744Z,100.00
2022-09-17T20:33:37.494Z,100.00
2022-09-17T20:36:07.178Z,100.00
2022-09-17T20:39:10.019Z,100.00
2022-09-17T20:41:21.405Z,100.00
2022-09-17T20:43:53.336Z,100.00
2022-09-17T20:46:27.596Z,100.00
2022-09-17T20:48:55.498Z,100.00
2022-09-17T20:51:24.386Z,100.00
2022-09-17T20:53:51.431Z,100.00
2022-09-17T20:56:24.436Z,100.00
2022-09-17T20:59:03.962Z,100.00
2022-09-17T21:01:34.691Z,100.00
2022-09-17T21:04:03.619Z,100.00
2022-09-17T21:06:33.336Z,100.00
2022-09-17T21:09:00.374Z,100.00
2022-09-17T21:11:28.814Z,100.00
2022-09-17T21:13:55.659Z,100.00
2022-09-17T21:16:22.403Z,100.00
2022-09-17T21:18:49.412Z,100.00
2022-09-17T21:21:18.032Z,100.00
2022-09-17T21:23:44.958Z,100.00
2022-09-17T21:26:17.739Z,100.00
2022-09-17T21:28:47.341Z,100.00
2022-09-17T21:31:17.212Z,100.00
2022-09-17T21:33:45.280Z,100.00
2022-09-17T21:36:16.697Z,100.00
2022-09-17T21:38:43.970Z,100.00
2022-09-17T21:41:13.666Z,100.00
2022-09-17T21:43:41.232Z,100.00
2022-09-17T21:46:12.695Z,100.00
2022-09-17T21:49:00.218Z,100.00
2022-09-17T21:51:30.641Z,100.00
2022-09-17T21:54:00.357Z,100.00
2022-09-17T21:56:28.028Z,100.00
2022-09-17T21:59:00.174Z,100.00
2022-09-17T22:01:32.802Z,100.00
2022-09-17T22:04:00.244Z,100.00
2022-09-17T22:06:29.395Z,100.00
2022-09-17T22:08:57.930Z,100.00
2022-09-17T22:11:27.885Z,100.00
2022-09-17T22:14:05.200Z,100.00
2022-09-17T22:16:33.597Z,100.00
2022-09-17T22:19:02.592Z,100.00
2022-09-17T22:21:31.285Z,100.00
2022-09-17T22:24:01.551Z,100.00
2022-09-17T22:26:31.953Z,100.00
2022-09-17T22:29:12.236Z,100.00
2022-09-17T22:31:39.021Z,100.00
2022-09-17T22:34:15.451Z,100.00
2022-09-17T22:36:42.460Z,100.00
2022-09-17T22:39:09.918Z,100.00
2022-09-17T22:41:42.915Z,100.00
2022-09-17T22:44:12.447Z,100.00
2022-09-17T22:46:39.869Z,100.00
2022-09-17T22:49:08.251Z,100.00
2022-09-17T22:51:35.096Z,100.00
2022-09-17T22:54:02.179Z,100.00
2022-09-17T22:56:29.468Z,100.00
2022-09-17T22:58:57.784Z,100.00
2022-09-17T23:01:30.169Z,100.00
2022-09-17T23:03:59.328Z,100.00
2022-09-17T23:06:29.065Z,100.00
2022-09-17T23:08:56.016Z,100.00
2022-09-17T23:11:25.668Z,100.00
2022-09-17T23:13:53.573Z,100.00
2022-09-17T23:16:20.978Z,100.00
2022-09-17T23:18:47.685Z,100.00
2022-09-17T23:21:16.775Z,100.00
2022-09-17T23:23:46.436Z,100.00
2022-09-17T23:26:15.750Z,100.00
2022-09-17T23:28:42.620Z,100.00
2022-09-17T23:31:15.224Z,100.00
2022-09-17T23:33:42.925Z,100.00
2022-09-17T23:36:13.209Z,100.00
2022-09-17T23:38:41.830Z,100.00
2022-09-17T23:41:18.310Z,100.00
2022-09-17T23:43:48.366Z,100.00
2022-09-17T23:46:15.400Z,100.00
2022-09-17T23:48:42.529Z,100.00
2022-09-17T23:51:09.800Z,100.00
2022-09-17T23:53:37.221Z,100.00
2022-09-17T23:56:08.549Z,100.00
2022-09-17T23:58:35.289Z,100.00
